Weather reports worldwide

Advertisment
S. Giovanni Teatino, Italy (16231): temperature & dewpoint: 25.10.2020 09:00:00 - 31.10.2020 09:00:00 (CET)S. Giovanni Teatino, Italy (16231): wind speed: 25.10.2020 09:00:00 - 31.10.2020 09:00:00 (CET)S. Giovanni Teatino, Italy (16231): wind direction: 25.10.2020 09:00:00 - 31.10.2020 09:00:00 (CET)S. Giovanni Teatino, Italy (16231): reduced air pressure: 25.10.2020 09:00:00 - 31.10.2020 09:00:00 (CET)S. Giovanni Teatino, Italy (16231): precipitation: 25.10.2020 09:00:00 - 31.10.2020 09:00:00 (CET)
Date & Time tt [°C] td [°C] ff [km/h] ff [kn] dd ppp [hPa] rr [mm]
31.10.2020 09:00:00 - - - - - - -
31.10.2020 08:00:00 - - - - - - -
31.10.2020 07:00:00 11,9 11,1 8 4 SW 1024,0 0,0
31.10.2020 06:00:00 12,0 9,9 9 5 SSW 1024,0 -
31.10.2020 05:00:00 12,5 10,5 4 2 E 1023,9 -
31.10.2020 04:00:00 13,0 10,1 0 0 N 1023,6 -
31.10.2020 03:00:00 13,2 11,9 4 2 SW 1023,8 -
31.10.2020 02:00:00 13,0 12,0 5 3 SW 1024,1 -
31.10.2020 01:00:00 12,9 11,9 4 2 WSW 1024,2 0,0
31.10.2020 00:00:00 13,9 13,2 5 3 SW 1024,0 -
30.10.2020 23:00:00 13,2 12,6 4 2 SW 1024,4 -
30.10.2020 22:00:00 13,3 12,7 4 2 SW 1024,4 -
30.10.2020 21:00:00 13,4 12,6 4 2 WSW 1024,4 -
30.10.2020 20:00:00 13,8 13,0 8 4 E 1024,2 -
30.10.2020 19:00:00 14,0 13,2 5 3 E 1023,8 0,0
30.10.2020 18:00:00 14,3 13,1 8 4 E 1023,6 -
30.10.2020 17:00:00 15,1 13,4 13 7 ENE 1023,2 -
30.10.2020 16:00:00 16,7 12,2 13 7 ENE 1023,0 -
30.10.2020 15:00:00 18,0 12,6 11 6 ENE 1022,6 -
30.10.2020 14:00:00 18,6 12,5 15 8 ENE 1022,6 -
30.10.2020 13:00:00 18,9 12,1 9 5 NE 1022,7 0,0
30.10.2020 12:00:00 19,0 12,0 5 3 WNW 1023,3 -
30.10.2020 11:00:00 18,7 13,5 2 1 NE 1024,0 -
30.10.2020 10:00:00 15,4 10,7 8 4 SW 1024,2 -
30.10.2020 09:00:00 14,5 10,9 9 5 SW 1024,2 -
30.10.2020 08:00:00 13,0 10,0 4 2 SW 1023,7 -
30.10.2020 07:00:00 12,5 10,0 8 4 SW 1023,4 0,0
30.10.2020 06:00:00 12,0 9,5 5 3 SW 1023,3 -
30.10.2020 05:00:00 12,6 9,8 9 5 SW 1022,9 -
30.10.2020 04:00:00 12,7 9,7 5 3 SSW 1022,2 -
30.10.2020 03:00:00 12,8 10,3 8 4 SSW 1021,6 -
30.10.2020 02:00:00 12,6 10,3 4 2 SW 1022,2 -
30.10.2020 01:00:00 12,6 10,6 8 4 SW 1022,4 0,0
30.10.2020 00:00:00 12,7 10,4 2 1 WSW 1022,0 -
29.10.2020 23:00:00 13,4 10,4 4 2 WSW 1021,8 -
29.10.2020 22:00:00 13,5 10,6 4 2 SSW 1021,6 -
29.10.2020 21:00:00 14,4 11,1 0 0 N 1020,9 -
29.10.2020 20:00:00 14,4 11,3 2 1 E 1020,5 -
29.10.2020 19:00:00 14,5 11,1 5 3 ENE 1020,4 0,0
29.10.2020 18:00:00 14,7 11,6 5 3 NE 1019,8 -
29.10.2020 17:00:00 15,8 10,9 4 2 E 1019,3 -
29.10.2020 16:00:00 16,6 10,6 8 4 ENE 1018,8 -
29.10.2020 15:00:00 17,7 10,8 9 5 ENE 1018,2 -
29.10.2020 14:00:00 16,3 10,1 11 6 ENE 1018,2 -
29.10.2020 13:00:00 17,0 10,6 9 5 ENE 1018,3 0,0
29.10.2020 12:00:00 18,5 11,0 9 5 ENE 1018,4 -
29.10.2020 11:00:00 16,5 8,9 4 2 E 1018,9 -
29.10.2020 10:00:00 15,7 10,0 4 2 S 1018,6 -
29.10.2020 09:00:00 15,1 7,8 9 5 N 1018,2 -
29.10.2020 08:00:00 14,1 6,4 13 7 WSW 1018,3 -
29.10.2020 07:00:00 11,9 7,0 9 5 S 1018,8 0,0
29.10.2020 06:00:00 11,4 8,9 8 4 SSW 1018,6 -
29.10.2020 05:00:00 11,4 8,8 4 2 S 1017,6 -
29.10.2020 04:00:00 11,1 10,0 13 7 SW 1017,8 -
29.10.2020 03:00:00 11,7 10,6 9 5 SW 1017,8 -
29.10.2020 02:00:00 11,6 10,8 4 2 SW 1017,8 -
29.10.2020 01:00:00 11,7 11,5 11 6 SW 1018,2 0,0
29.10.2020 00:00:00 11,1 10,5 11 6 SW 1018,4 -
28.10.2020 23:00:00 12,2 11,6 8 4 SW 1018,2 -
28.10.2020 22:00:00 12,6 12,0 8 4 SW 1018,5 -
28.10.2020 21:00:00 12,7 11,9 5 3 SW 1018,3 -
28.10.2020 20:00:00 13,1 12,1 9 5 SW 1018,2 -
28.10.2020 19:00:00 13,5 12,0 5 3 WSW 1018,0 0,0
28.10.2020 18:00:00 14,4 12,6 5 3 W 1017,6 -
28.10.2020 17:00:00 15,2 12,7 5 3 WNW 1017,1 -
28.10.2020 16:00:00 15,8 12,1 4 2 NW 1016,7 -
28.10.2020 15:00:00 17,4 10,5 9 5 NNW 1016,4 -
28.10.2020 14:00:00 18,2 11,9 5 3 NNW 1016,0 -
28.10.2020 13:00:00 18,9 11,4 4 2 NNW 1016,3 -
28.10.2020 12:00:00 17,6 11,8 4 2 W 1016,8 -
28.10.2020 11:00:00 16,4 12,5 5 3 WSW 1017,1 -
28.10.2020 10:00:00 14,0 12,8 8 4 WSW 1017,3 -
28.10.2020 09:00:00 12,9 11,5 5 3 WSW 1016,9 -
28.10.2020 08:00:00 12,3 10,7 9 5 WSW 1016,3 -
28.10.2020 07:00:00 12,0 9,9 13 7 WSW 1015,3 0,0
28.10.2020 06:00:00 12,3 10,3 8 4 WSW 1015,1 -
28.10.2020 05:00:00 11,6 10,0 8 4 SW 1014,6 -
28.10.2020 04:00:00 12,1 10,3 8 4 SW 1014,6 -
28.10.2020 03:00:00 12,4 10,6 8 4 SW 1014,6 -
28.10.2020 02:00:00 12,1 11,0 8 4 SW 1014,6 -
28.10.2020 01:00:00 11,9 11,1 8 4 SW 1014,7 0,0
28.10.2020 00:00:00 12,2 11,3 5 3 SW 1014,6 -
27.10.2020 23:00:00 12,5 11,1 9 5 SW 1014,2 -
27.10.2020 22:00:00 12,7 11,6 9 5 WSW 1014,1 -
27.10.2020 21:00:00 13,4 12,3 5 3 SW 1013,7 -
27.10.2020 20:00:00 14,3 12,7 4 2 SW 1012,9 -
27.10.2020 19:00:00 14,9 13,4 9 5 NW 1012,4 0,0
27.10.2020 18:00:00 14,8 13,1 4 2 N 1011,6 -
27.10.2020 17:00:00 15,7 13,5 9 5 NNW 1010,8 -
27.10.2020 16:00:00 16,9 14,3 11 6 N 1009,9 -
27.10.2020 15:00:00 17,4 13,0 4 2 N 1009,5 -
27.10.2020 14:00:00 18,5 11,3 8 4 W 1009,3 -
27.10.2020 13:00:00 17,6 10,2 5 3 W 1009,0 0,0
27.10.2020 12:00:00 17,3 9,4 21 11 SSW 1009,2 -
27.10.2020 11:00:00 17,4 9,5 28 15 NE 1008,9 -
27.10.2020 10:00:00 17,4 10,2 16 9 SSW 1008,9 -
27.10.2020 09:00:00 16,8 11,5 9 5 SW 1008,6 -
27.10.2020 08:00:00 16,4 11,7 5 3 N 1008,2 -
27.10.2020 07:00:00 17,6 11,1 8 4 SW 1006,9 0,0
27.10.2020 06:00:00 18,0 12,0 11 6 SSW 1006,6 -
27.10.2020 05:00:00 18,0 11,5 4 2 S 1006,4 -
27.10.2020 04:00:00 19,0 10,5 13 7 SW 1005,8 -
27.10.2020 03:00:00 17,7 9,5 13 7 E 1006,0 -
27.10.2020 02:00:00 19,4 9,5 5 3 SSE 1006,1 -
27.10.2020 01:00:00 19,2 9,3 15 8 ESE 1006,6 0,0
27.10.2020 00:00:00 18,1 8,9 4 2 E 1007,3 -
26.10.2020 23:00:00 19,0 9,7 8 4 WNW 1007,8 -
26.10.2020 22:00:00 18,6 10,1 13 7 ESE 1008,4 -
26.10.2020 21:00:00 18,7 8,6 9 5 SW 1008,3 -
26.10.2020 20:00:00 18,6 9,0 2 1 SW 1008,1 -
26.10.2020 19:00:00 19,4 9,2 11 6 SSW 1008,6 0,0
26.10.2020 18:00:00 19,8 9,6 9 5 SSW 1008,2 -
26.10.2020 17:00:00 20,4 9,3 13 7 SSW 1008,3 -
26.10.2020 16:00:00 21,6 9,4 21 11 SSW 1008,4 -
26.10.2020 15:00:00 23,3 9,6 11 6 E 1008,6 -
26.10.2020 14:00:00 24,1 9,6 8 4 SE 1009,3 -
26.10.2020 13:00:00 23,3 9,6 21 11 SW 1010,1 0,0
26.10.2020 12:00:00 21,9 11,6 13 7 E 1010,9 -
26.10.2020 11:00:00 20,9 13,0 5 3 SSE 1012,0 -
26.10.2020 10:00:00 19,5 12,7 13 7 E 1012,4 -
26.10.2020 09:00:00 18,0 11,0 8 4 SE 1012,9 -
26.10.2020 08:00:00 15,9 9,7 13 7 SSW 1013,6 -
26.10.2020 07:00:00 14,8 9,3 9 5 SSW 1013,4 0,0
26.10.2020 06:00:00 13,5 8,7 15 8 SSW 1013,5 -
26.10.2020 05:00:00 15,5 9,3 11 6 ESE 1013,9 -
26.10.2020 04:00:00 14,9 9,6 8 4 SSE 1014,0 -
26.10.2020 03:00:00 14,7 9,2 8 4 SSE 1014,3 -
26.10.2020 02:00:00 15,0 9,9 9 5 SE 1014,9 -
26.10.2020 01:00:00 14,5 10,7 11 6 SSE 1015,3 0,0
26.10.2020 00:00:00 14,7 11,3 4 2 SE 1015,6 -
25.10.2020 23:00:00 15,3 11,8 9 5 SE 1015,4 -
25.10.2020 22:00:00 14,9 11,8 5 3 ESE 1015,6 -
25.10.2020 21:00:00 14,9 12,4 9 5 ESE 1015,4 -
25.10.2020 20:00:00 14,8 12,8 15 8 E 1015,3 -
25.10.2020 19:00:00 15,1 13,4 18 10 E 1015,8 0,0
25.10.2020 18:00:00 14,9 13,4 18 10 E 1015,4 -
25.10.2020 17:00:00 15,7 13,6 11 6 ENE 1015,2 -
25.10.2020 16:00:00 17,0 13,4 13 7 ENE 1014,9 -
25.10.2020 15:00:00 18,1 12,9 13 7 ENE 1014,5 -
25.10.2020 14:00:00 20,1 12,5 8 4 N 1014,3 -
25.10.2020 13:00:00 20,5 12,7 8 4 NNW 1014,7 0,0
25.10.2020 12:00:00 19,2 13,3 2 1 W 1015,4 -
25.10.2020 11:00:00 18,1 12,9 2 1 SW 1015,5 -
25.10.2020 10:00:00 17,3 13,1 2 1 SSE 1015,7 -
25.10.2020 09:00:00 15,9 11,0 11 6 SW 1015,8 -

tt = temperature
td = dewpoint
ff = wind speed
dd = wind direction
ppp = reduced air pressure
rr = precipitation

Next stations